Time;durP1;ratioP1;P1;durP2;ratioP2;P2;SDS_P1;SDS_P2;PMS_P1;PMS_P2;Temp;Humidity;BMP_temperature;BMP_pressure;BME280_temperature;BME280_humidity;BME280_pressure;Samples;Min_cycle;Max_cycle;Signal;HPM_P1;HPM_P2
2023/12/17 00:01:37;;;;;;;20.93;14.20;;;;;;;;;;6306410;22;20195;-57
2023/12/17 00:04:04;;;;;;;25.80;14.20;;;;;;;;;;6304780;22;20159;-58
2023/12/17 00:06:34;;;;;;;19.40;13.43;;;;;;;;;;6305565;22;20131;-55
2023/12/17 00:09:00;;;;;;;19.23;13.90;;;;;;;;;;6278594;22;20139;-58
2023/12/17 00:11:26;;;;;;;18.53;13.13;;;;;;;;;;6278389;22;20167;-59
2023/12/17 00:13:53;;;;;;;17.20;12.60;;;;;;;;;;6279345;22;20179;-58
2023/12/17 00:16:19;;;;;;;20.40;13.27;;;;;;;;;;6279914;22;20139;-56
2023/12/17 00:18:46;;;;;;;18.27;12.60;;;;;;;;;;6280413;22;20695;-59
2023/12/17 00:21:12;;;;;;;17.17;11.93;;;;;;;;;;6305086;22;20131;-56
2023/12/17 00:23:39;;;;;;;25.03;13.80;;;;;;;;;;6279218;22;20159;-58
2023/12/17 00:26:09;;;;;;;17.37;11.97;;;;;;;;;;6279952;22;20143;-57
2023/12/17 00:28:35;;;;;;;17.03;12.20;;;;;;;;;;6306913;22;20439;-56
2023/12/17 00:31:01;;;;;;;18.33;11.60;;;;;;;;;;6309732;22;20139;-53
2023/12/17 00:33:27;;;;;;;15.47;11.53;;;;;;;;;;6282977;22;20273;-55
2023/12/17 00:35:54;;;;;;;17.00;11.03;;;;;;;;;;6283731;22;20302;-55
2023/12/17 00:38:22;;;;;;;16.20;12.20;;;;;;;;;;6282977;22;20710;-51
2023/12/17 00:40:48;;;;;;;17.10;11.50;;;;;;;;;;6282134;22;20207;-55
2023/12/17 00:43:14;;;;;;;14.43;11.03;;;;;;;;;;6281288;22;20150;-54
2023/12/17 00:45:41;;;;;;;15.20;11.00;;;;;;;;;;6308374;22;20132;-54
2023/12/17 00:48:07;;;;;;;19.90;11.67;;;;;;;;;;6282337;22;20167;-54
2023/12/17 00:50:33;;;;;;;15.23;9.83;;;;;;;;;;6309561;22;20127;-52
2023/12/17 00:52:59;;;;;;;15.87;11.43;;;;;;;;;;6282622;22;20144;-55
2023/12/17 00:55:26;;;;;;;15.07;10.60;;;;;;;;;;6282190;22;20180;-53
2023/12/17 00:57:52;;;;;;;15.17;10.90;;;;;;;;;;6283341;22;20132;-56
2023/12/17 01:00:19;;;;;;;17.80;10.93;;;;;;;;;;6308665;22;20224;-53
2023/12/17 01:02:45;;;;;;;16.47;9.97;;;;;;;;;;6282394;22;20139;-54
2023/12/17 01:05:15;;;;;;;14.00;10.03;;;;;;;;;;6282988;22;20151;-56
2023/12/17 01:07:42;;;;;;;14.17;9.40;;;;;;;;;;6309597;22;20403;-55
2023/12/17 01:10:08;;;;;;;12.87;8.90;;;;;;;;;;6283056;22;20158;-55
2023/12/17 01:12:34;;;;;;;12.37;9.07;;;;;;;;;;6282109;22;20154;-53
2023/12/17 01:15:00;;;;;;;15.07;9.57;;;;;;;;;;6282752;22;20171;-55
2023/12/17 01:17:26;;;;;;;10.43;8.60;;;;;;;;;;6282190;22;20170;-55
2023/12/17 01:19:52;;;;;;;13.30;8.90;;;;;;;;;;6281906;22;20146;-54
2023/12/17 01:22:18;;;;;;;19.33;8.97;;;;;;;;;;6281312;22;20135;-55
2023/12/17 01:24:44;;;;;;;14.63;9.33;;;;;;;;;;6280891;22;20148;-54
2023/12/17 01:27:10;;;;;;;11.97;8.07;;;;;;;;;;6307964;22;20127;-55
2023/12/17 01:29:36;;;;;;;10.93;8.57;;;;;;;;;;6280853;22;20444;-53
2023/12/17 01:32:03;;;;;;;16.53;8.10;;;;;;;;;;6280368;22;20485;-57
2023/12/17 01:34:29;;;;;;;13.93;8.27;;;;;;;;;;6281262;22;20174;-58
2023/12/17 01:36:55;;;;;;;16.27;9.93;;;;;;;;;;6281417;22;20420;-58
2023/12/17 01:39:21;;;;;;;12.50;7.70;;;;;;;;;;6280966;22;20194;-54
2023/12/17 01:41:49;;;;;;;12.47;8.20;;;;;;;;;;6306994;22;20750;-54
2023/12/17 01:44:15;;;;;;;15.40;7.40;;;;;;;;;;6280734;22;20166;-57
2023/12/17 01:46:42;;;;;;;9.80;8.03;;;;;;;;;;6305619;22;20196;-57
2023/12/17 01:49:09;;;;;;;12.57;8.67;;;;;;;;;;6279992;22;20143;-57
2023/12/17 01:51:36;;;;;;;11.13;7.97;;;;;;;;;;6308180;22;20128;-58
2023/12/17 01:54:02;;;;;;;12.20;8.60;;;;;;;;;;6281036;22;20229;-57
2023/12/17 01:56:37;;;;;;;10.60;7.83;;;;;;;;;;6280671;22;20500;-56
2023/12/17 01:59:04;;;;;;;12.47;7.63;;;;;;;;;;6282006;22;20154;-58
2023/12/17 02:01:31;;;;;;;11.87;8.27;;;;;;;;;;6281411;22;20716;-57
2023/12/17 02:03:57;;;;;;;9.70;8.03;;;;;;;;;;6281449;22;20150;-57
2023/12/17 02:06:23;;;;;;;12.77;8.10;;;;;;;;;;6281878;22;20151;-57
2023/12/17 02:08:49;;;;;;;11.60;7.83;;;;;;;;;;6280870;22;20143;-58
2023/12/17 02:11:17;;;;;;;13.20;8.43;;;;;;;;;;6280519;22;20171;-58
2023/12/17 02:13:43;;;;;;;13.17;8.00;;;;;;;;;;6282068;22;20175;-55
2023/12/17 02:16:10;;;;;;;12.27;7.10;;;;;;;;;;6281881;22;20147;-52
2023/12/17 02:18:36;;;;;;;10.97;6.83;;;;;;;;;;6307509;22;20574;-53
2023/12/17 02:21:04;;;;;;;10.10;7.07;;;;;;;;;;6282375;22;20663;-55
2023/12/17 02:23:30;;;;;;;8.87;7.10;;;;;;;;;;6308652;22;20120;-55
2023/12/17 02:25:56;;;;;;;10.27;6.53;;;;;;;;;;6308448;22;20120;-56
2023/12/17 02:28:22;;;;;;;9.57;6.10;;;;;;;;;;6281942;22;20201;-56
2023/12/17 02:30:48;;;;;;;8.90;5.90;;;;;;;;;;6281816;22;20163;-55
2023/12/17 02:33:14;;;;;;;9.17;5.93;;;;;;;;;;6307858;22;20194;-55
2023/12/17 02:35:40;;;;;;;7.53;5.33;;;;;;;;;;6282094;22;20175;-56
2023/12/17 02:38:06;;;;;;;10.50;6.23;;;;;;;;;;6281879;22;20146;-56
2023/12/17 02:40:32;;;;;;;6.10;5.00;;;;;;;;;;6276145;22;20195;-56
2023/12/17 02:43:00;;;;;;;13.10;5.80;;;;;;;;;;6275847;22;20180;-55
2023/12/17 02:45:26;;;;;;;10.17;5.90;;;;;;;;;;6276666;22;20545;-55
2023/12/17 02:47:52;;;;;;;9.87;6.10;;;;;;;;;;6275196;22;20148;-56
2023/12/17 02:50:18;;;;;;;9.60;5.93;;;;;;;;;;6273716;22;20148;-54
2023/12/17 02:52:45;;;;;;;12.43;6.27;;;;;;;;;;6275187;22;20208;-56
2023/12/17 02:55:11;;;;;;;9.83;6.27;;;;;;;;;;6275709;22;20164;-55
2023/12/17 02:57:37;;;;;;;8.33;5.90;;;;;;;;;;6276172;22;20140;-56
2023/12/17 03:00:03;;;;;;;8.73;5.93;;;;;;;;;;6275281;22;20186;-56
2023/12/17 03:02:29;;;;;;;12.97;6.20;;;;;;;;;;6274795;22;20148;-55
2023/12/17 03:04:55;;;;;;;9.20;5.67;;;;;;;;;;6275962;22;20139;-55
2023/12/17 03:07:34;;;;;;;7.93;6.07;;;;;;;;;;6275143;22;20167;-57
2023/12/17 03:10:00;;;;;;;7.47;6.23;;;;;;;;;;6274980;22;20150;-57
2023/12/17 03:12:26;;;;;;;8.63;6.10;;;;;;;;;;6275300;22;20190;-56
2023/12/17 03:14:52;;;;;;;8.47;5.53;;;;;;;;;;6274820;22;20187;-56
2023/12/17 03:17:18;;;;;;;8.63;5.03;;;;;;;;;;6276489;22;20128;-58
2023/12/17 03:19:44;;;;;;;11.17;5.70;;;;;;;;;;6276798;22;20155;-56
2023/12/17 03:22:10;;;;;;;7.73;5.40;;;;;;;;;;6275807;22;20192;-53
2023/12/17 03:24:36;;;;;;;6.63;5.40;;;;;;;;;;6275502;22;20507;-56
2023/12/17 03:27:02;;;;;;;8.17;5.77;;;;;;;;;;6275047;22;20144;-53
2023/12/17 03:29:29;;;;;;;8.53;5.47;;;;;;;;;;6274847;22;20152;-55
2023/12/17 03:31:57;;;;;;;10.40;4.90;;;;;;;;;;6275193;22;20154;-56
2023/12/17 03:34:24;;;;;;;7.97;5.43;;;;;;;;;;6274717;22;20163;-52
2023/12/17 03:36:50;;;;;;;8.57;5.13;;;;;;;;;;6274191;22;20147;-54
2023/12/17 03:39:16;;;;;;;5.60;4.53;;;;;;;;;;6275469;22;20147;-55
2023/12/17 03:41:42;;;;;;;7.37;5.33;;;;;;;;;;6275286;22;20187;-54
2023/12/17 03:44:08;;;;;;;10.53;5.33;;;;;;;;;;6274776;22;20152;-52
2023/12/17 03:46:34;;;;;;;7.37;4.53;;;;;;;;;;6275795;22;20205;-58
2023/12/17 03:49:00;;;;;;;6.43;5.00;;;;;;;;;;6274647;22;20144;-55
2023/12/17 03:51:26;;;;;;;8.23;5.33;;;;;;;;;;6275946;22;20140;-58
2023/12/17 03:53:59;;;;;;;6.63;4.73;;;;;;;;;;6275383;22;20207;-56
2023/12/17 03:56:24;;;;;;;10.17;5.93;;;;;;;;;;6276924;22;20164;-57
2023/12/17 03:58:51;;;;;;;7.77;4.50;;;;;;;;;;6275445;22;20155;-53
2023/12/17 04:01:17;;;;;;;7.33;4.53;;;;;;;;;;6275721;22;20461;-56
2023/12/17 04:03:43;;;;;;;6.20;4.70;;;;;;;;;;6275611;22;20147;-56
2023/12/17 04:06:09;;;;;;;10.23;5.30;;;;;;;;;;6276480;22;20426;-59
2023/12/17 04:08:37;;;;;;;10.20;5.57;;;;;;;;;;6277296;22;20203;-58
2023/12/17 04:11:03;;;;;;;5.83;4.90;;;;;;;;;;6275882;22;20144;-56
2023/12/17 04:13:29;;;;;;;7.73;5.03;;;;;;;;;;6275202;22;20146;-58
2023/12/17 04:15:55;;;;;;;11.40;4.50;;;;;;;;;;6277017;22;20129;-55
2023/12/17 04:18:21;;;;;;;8.43;4.40;;;;;;;;;;6276649;22;20136;-56
2023/12/17 04:23:53;;;;;;;10.77;5.40;;;;;;;;;;6273667;22;20131;-54
2023/12/17 04:26:20;;;;;;;6.30;4.57;;;;;;;;;;6269905;22;20140;-55
2023/12/17 04:28:46;;;;;;;5.63;3.87;;;;;;;;;;6270879;22;20183;-56
2023/12/17 04:31:12;;;;;;;9.67;4.80;;;;;;;;;;6271692;22;20143;-56
2023/12/17 04:33:39;;;;;;;8.77;4.63;;;;;;;;;;6270718;22;20135;-55
2023/12/17 04:36:05;;;;;;;8.47;4.97;;;;;;;;;;6270182;22;20140;-55
2023/12/17 04:38:31;;;;;;;8.17;4.53;;;;;;;;;;6267787;22;20155;-53
2023/12/17 04:40:58;;;;;;;8.27;4.90;;;;;;;;;;6269311;22;20663;-52
2023/12/17 04:43:25;;;;;;;6.20;4.83;;;;;;;;;;6272584;22;20147;-56
2023/12/17 04:45:51;;;;;;;6.37;4.43;;;;;;;;;;6274857;22;20144;-53
2023/12/17 04:48:17;;;;;;;7.47;4.40;;;;;;;;;;6275849;22;20149;-56
2023/12/17 04:50:43;;;;;;;5.67;4.67;;;;;;;;;;6274720;22;20141;-52
2023/12/17 04:53:12;;;;;;;6.33;4.23;;;;;;;;;;6276184;22;20194;-54
2023/12/17 04:55:37;;;;;;;4.63;4.10;;;;;;;;;;6275322;22;20428;-56
2023/12/17 04:58:03;;;;;;;6.07;4.47;;;;;;;;;;6275651;22;20186;-53
2023/12/17 05:00:29;;;;;;;7.67;4.80;;;;;;;;;;6277272;22;20166;-55
2023/12/17 05:02:55;;;;;;;9.23;5.13;;;;;;;;;;6275976;22;20140;-55
2023/12/17 05:05:23;;;;;;;6.97;4.60;;;;;;;;;;6275905;22;20215;-51
2023/12/17 05:07:49;;;;;;;5.63;3.73;;;;;;;;;;6275387;22;20140;-54
2023/12/17 05:10:15;;;;;;;9.67;4.23;;;;;;;;;;6276274;22;20194;-52
2023/12/17 05:12:41;;;;;;;7.97;4.47;;;;;;;;;;6275497;22;20171;-53
2023/12/17 05:15:07;;;;;;;7.03;4.00;;;;;;;;;;6277202;22;20673;-54
2023/12/17 05:17:33;;;;;;;5.60;4.13;;;;;;;;;;6278201;22;20498;-54
2023/12/17 05:19:59;;;;;;;10.23;4.90;;;;;;;;;;6278401;22;20152;-55
2023/12/17 05:22:25;;;;;;;7.83;4.13;;;;;;;;;;6278142;22;20209;-56
2023/12/17 05:24:52;;;;;;;7.60;4.23;;;;;;;;;;6278292;22;20145;-54
2023/12/17 05:27:18;;;;;;;8.93;4.43;;;;;;;;;;6277111;22;20144;-54
2023/12/17 05:29:44;;;;;;;7.93;4.60;;;;;;;;;;6278403;22;20205;-56
2023/12/17 05:32:10;;;;;;;6.73;4.50;;;;;;;;;;6277318;22;20211;-55
2023/12/17 05:34:40;;;;;;;9.47;4.37;;;;;;;;;;6277568;22;20530;-54
2023/12/17 05:37:06;;;;;;;9.40;4.20;;;;;;;;;;6277902;22;20144;-52
2023/12/17 05:39:33;;;;;;;7.67;4.23;;;;;;;;;;6277148;22;20148;-54
2023/12/17 05:41:59;;;;;;;6.13;4.00;;;;;;;;;;6276643;22;20565;-53
2023/12/17 05:44:25;;;;;;;5.93;3.90;;;;;;;;;;6276069;22;20148;-53
2023/12/17 05:46:51;;;;;;;6.47;4.47;;;;;;;;;;6277482;22;20149;-56
2023/12/17 05:49:17;;;;;;;5.67;3.40;;;;;;;;;;6277069;22;20148;-56
2023/12/17 05:51:44;;;;;;;5.67;4.13;;;;;;;;;;6277568;22;20205;-54
2023/12/17 05:54:11;;;;;;;10.53;4.80;;;;;;;;;;6277698;22;20160;-55
2023/12/17 05:56:44;;;;;;;9.10;4.43;;;;;;;;;;6277559;22;20144;-54
2023/12/17 05:59:10;;;;;;;5.40;4.10;;;;;;;;;;6277695;22;20140;-55
2023/12/17 06:01:37;;;;;;;7.07;3.87;;;;;;;;;;6277253;22;20207;-54
2023/12/17 06:04:03;;;;;;;9.67;4.60;;;;;;;;;;6276603;22;20738;-55
2023/12/17 06:06:29;;;;;;;5.27;3.87;;;;;;;;;;6276218;22;20144;-56
2023/12/17 06:08:55;;;;;;;4.73;3.60;;;;;;;;;;6276432;22;20129;-56
2023/12/17 06:11:21;;;;;;;7.20;4.37;;;;;;;;;;6276825;22;20197;-52
2023/12/17 06:13:47;;;;;;;5.60;3.73;;;;;;;;;;6276548;22;20451;-52
2023/12/17 06:16:13;;;;;;;4.07;3.37;;;;;;;;;;6277127;22;20151;-55
2023/12/17 06:18:39;;;;;;;5.97;4.10;;;;;;;;;;6276555;22;20140;-56
2023/12/17 06:21:07;;;;;;;7.37;4.23;;;;;;;;;;6277885;22;20135;-54
2023/12/17 06:23:33;;;;;;;3.97;3.50;;;;;;;;;;6276318;22;20140;-56
2023/12/17 06:26:04;;;;;;;8.73;4.30;;;;;;;;;;6275279;22;20239;-54
2023/12/17 06:28:30;;;;;;;11.43;3.70;;;;;;;;;;6277152;22;20549;-57
2023/12/17 06:30:56;;;;;;;8.00;4.67;;;;;;;;;;6277327;22;20156;-52
2023/12/17 06:33:22;;;;;;;7.07;3.93;;;;;;;;;;6277010;22;20144;-55
2023/12/17 06:35:49;;;;;;;6.50;3.47;;;;;;;;;;6277953;22;20172;-55
2023/12/17 06:38:15;;;;;;;4.23;2.93;;;;;;;;;;6276640;22;20136;-53
2023/12/17 06:40:41;;;;;;;6.10;3.80;;;;;;;;;;6275948;22;20195;-56
2023/12/17 06:43:08;;;;;;;7.03;3.27;;;;;;;;;;6275703;22;20141;-57
2023/12/17 06:45:34;;;;;;;3.83;3.13;;;;;;;;;;6275655;22;20163;-56
2023/12/17 06:48:01;;;;;;;6.47;3.10;;;;;;;;;;6276696;22;20506;-55
2023/12/17 06:50:35;;;;;;;7.47;3.73;;;;;;;;;;6275664;22;20140;-54
2023/12/17 06:53:02;;;;;;;5.83;3.23;;;;;;;;;;6276122;22;20198;-55
2023/12/17 06:55:28;;;;;;;5.70;3.80;;;;;;;;;;6275123;22;20809;-57
2023/12/17 06:57:54;;;;;;;5.27;3.23;;;;;;;;;;6275405;22;20137;-51
2023/12/17 07:00:21;;;;;;;5.20;3.40;;;;;;;;;;6274709;22;20597;-54
2023/12/17 07:02:47;;;;;;;4.47;3.20;;;;;;;;;;6276396;22;20646;-56
2023/12/17 07:05:13;;;;;;;5.70;2.90;;;;;;;;;;6274730;22;20258;-57
2023/12/17 07:07:40;;;;;;;5.77;3.77;;;;;;;;;;6275701;22;20132;-56
2023/12/17 07:10:06;;;;;;;6.03;3.17;;;;;;;;;;6274841;22;20549;-57
2023/12/17 07:12:33;;;;;;;7.43;3.37;;;;;;;;;;6274879;22;20706;-58
2023/12/17 07:14:59;;;;;;;4.43;3.20;;;;;;;;;;6250001;22;20175;-56
2023/12/17 07:17:25;;;;;;;6.33;3.53;;;;;;;;;;6275061;22;20140;-58
2023/12/17 07:19:52;;;;;;;7.60;3.80;;;;;;;;;;6275640;22;20136;-59
2023/12/17 07:22:22;;;;;;;5.03;3.17;;;;;;;;;;6273348;22;20155;-58
2023/12/17 07:24:49;;;;;;;7.23;3.37;;;;;;;;;;6275185;22;20219;-56
2023/12/17 07:27:15;;;;;;;8.83;3.77;;;;;;;;;;6275489;22;20136;-56
2023/12/17 07:29:42;;;;;;;4.40;2.97;;;;;;;;;;6275197;22;20597;-57
2023/12/17 07:32:08;;;;;;;7.67;3.60;;;;;;;;;;6275217;22;20159;-57
2023/12/17 07:34:34;;;;;;;5.10;3.23;;;;;;;;;;6276303;22;20160;-58
2023/12/17 07:37:01;;;;;;;5.83;3.93;;;;;;;;;;6275495;22;20140;-55
2023/12/17 07:39:28;;;;;;;7.77;3.57;;;;;;;;;;6274067;22;20140;-56
2023/12/17 07:41:54;;;;;;;5.07;3.03;;;;;;;;;;6274085;22;20263;-57
2023/12/17 07:44:21;;;;;;;8.30;3.73;;;;;;;;;;6274410;22;20193;-56
2023/12/17 07:46:47;;;;;;;10.20;3.87;;;;;;;;;;6273944;22;20148;-55
2023/12/17 07:49:13;;;;;;;7.27;3.80;;;;;;;;;;6274330;22;20148;-57
2023/12/17 07:51:40;;;;;;;6.03;4.17;;;;;;;;;;6275153;22;20144;-55
2023/12/17 07:54:06;;;;;;;4.43;3.83;;;;;;;;;;6274555;22;20187;-57
2023/12/17 07:56:32;;;;;;;8.53;4.20;;;;;;;;;;6273893;22;20136;-57
2023/12/17 07:58:58;;;;;;;6.37;4.10;;;;;;;;;;6273729;22;20156;-55
2023/12/17 08:01:31;;;;;;;5.23;3.90;;;;;;;;;;6273052;22;20148;-57
2023/12/17 08:03:57;;;;;;;4.93;3.73;;;;;;;;;;6271801;22;20202;-57
2023/12/17 08:06:24;;;;;;;7.70;4.37;;;;;;;;;;6271640;22;20249;-57
2023/12/17 08:08:50;;;;;;;11.17;4.87;;;;;;;;;;6272068;22;20223;-57
2023/12/17 08:11:17;;;;;;;10.90;5.13;;;;;;;;;;6271748;22;20129;-58
2023/12/17 08:13:44;;;;;;;6.40;4.50;;;;;;;;;;6270489;22;20148;-56
2023/12/17 08:16:10;;;;;;;9.23;4.60;;;;;;;;;;6271474;22;20140;-54
2023/12/17 08:18:36;;;;;;;7.63;5.17;;;;;;;;;;6271401;22;20644;-57
2023/12/17 08:21:03;;;;;;;10.43;5.23;;;;;;;;;;6270669;22;20632;-54
2023/12/17 08:23:29;;;;;;;7.40;5.33;;;;;;;;;;6272001;22;20273;-56
2023/12/17 08:25:56;;;;;;;7.03;5.60;;;;;;;;;;6272329;22;20216;-58
2023/12/17 08:28:22;;;;;;;6.70;5.37;;;;;;;;;;6273028;22;20152;-57
2023/12/17 08:30:49;;;;;;;11.13;6.37;;;;;;;;;;6274897;22;20139;-57
2023/12/17 08:33:15;;;;;;;8.43;6.17;;;;;;;;;;6271891;22;20140;-58
2023/12/17 08:35:45;;;;;;;7.97;5.17;;;;;;;;;;6272016;22;20184;-57
2023/12/17 08:38:11;;;;;;;7.83;5.17;;;;;;;;;;6271334;22;20148;-57
2023/12/17 08:40:39;;;;;;;8.37;5.87;;;;;;;;;;6271367;22;20222;-56
2023/12/17 08:43:08;;;;;;;8.90;6.63;;;;;;;;;;6272088;22;20502;-56
2023/12/17 08:45:35;;;;;;;8.97;6.00;;;;;;;;;;6269922;22;20148;-57
2023/12/17 08:48:03;;;;;;;8.97;5.47;;;;;;;;;;6271547;22;20179;-57
2023/12/17 08:50:29;;;;;;;10.73;6.47;;;;;;;;;;6273723;22;20167;-57
2023/12/17 08:52:55;;;;;;;9.17;5.40;;;;;;;;;;6273303;22;20148;-57
2023/12/17 08:55:22;;;;;;;7.07;6.00;;;;;;;;;;6273795;22;20168;-56
2023/12/17 08:57:48;;;;;;;10.40;5.67;;;;;;;;;;6273481;22;20121;-56
2023/12/17 09:00:18;;;;;;;11.17;5.73;;;;;;;;;;6273037;22;20147;-55
2023/12/17 09:02:45;;;;;;;10.60;5.37;;;;;;;;;;6272360;22;20137;-56
2023/12/17 09:05:12;;;;;;;13.87;5.87;;;;;;;;;;6272557;22;20140;-56
2023/12/17 09:07:38;;;;;;;12.70;6.03;;;;;;;;;;6273954;22;20210;-58
2023/12/17 09:10:05;;;;;;;8.57;5.83;;;;;;;;;;6272023;22;20148;-55
2023/12/17 09:12:31;;;;;;;11.07;6.13;;;;;;;;;;6275294;22;20129;-58
2023/12/17 09:14:57;;;;;;;8.07;5.50;;;;;;;;;;6275092;22;20168;-55
2023/12/17 09:17:25;;;;;;;7.90;5.73;;;;;;;;;;6273165;22;20187;-57
2023/12/17 09:19:51;;;;;;;9.90;5.73;;;;;;;;;;6273750;22;20137;-57
2023/12/17 09:22:17;;;;;;;8.63;6.30;;;;;;;;;;6273959;22;20240;-56
2023/12/17 09:24:44;;;;;;;9.30;6.10;;;;;;;;;;6276112;22;20136;-57
2023/12/17 09:27:10;;;;;;;9.30;5.47;;;;;;;;;;6274975;22;20251;-58
2023/12/17 09:29:36;;;;;;;8.43;5.70;;;;;;;;;;6272724;22;20523;-56
2023/12/17 09:32:03;;;;;;;11.50;5.70;;;;;;;;;;6275200;22;20210;-56
2023/12/17 09:34:29;;;;;;;6.60;5.47;;;;;;;;;;6275147;22;20251;-58
2023/12/17 09:36:56;;;;;;;8.17;5.87;;;;;;;;;;6274577;22;20144;-56
2023/12/17 09:39:22;;;;;;;9.47;5.40;;;;;;;;;;6273637;22;20159;-57
2023/12/17 09:41:48;;;;;;;8.80;5.67;;;;;;;;;;6275124;22;20188;-53
2023/12/17 09:44:14;;;;;;;7.23;5.73;;;;;;;;;;6271830;22;20152;-58
2023/12/17 09:46:40;;;;;;;9.97;5.80;;;;;;;;;;6274270;22;20124;-57
2023/12/17 09:49:06;;;;;;;7.30;5.33;;;;;;;;;;6275123;22;20129;-56
2023/12/17 09:51:36;;;;;;;8.20;5.50;;;;;;;;;;6276024;22;20155;-58
2023/12/17 09:54:05;;;;;;;9.20;5.70;;;;;;;;;;6275158;22;20219;-58
2023/12/17 09:56:31;;;;;;;9.30;6.50;;;;;;;;;;6275202;22;20157;-57
2023/12/17 09:58:57;;;;;;;10.37;6.10;;;;;;;;;;6273765;22;20124;-56
2023/12/17 10:01:24;;;;;;;7.23;5.70;;;;;;;;;;6271956;22;20198;-58
2023/12/17 10:03:50;;;;;;;6.80;5.13;;;;;;;;;;6272653;22;20215;-53
2023/12/17 10:06:20;;;;;;;6.87;5.90;;;;;;;;;;6271380;22;20156;-56
2023/12/17 10:08:46;;;;;;;8.33;6.40;;;;;;;;;;6272578;22;20151;-58
2023/12/17 10:11:13;;;;;;;7.23;5.43;;;;;;;;;;6273154;22;20141;-58
2023/12/17 10:13:39;;;;;;;9.30;6.57;;;;;;;;;;6274259;22;20168;-57
2023/12/17 10:16:06;;;;;;;10.87;6.63;;;;;;;;;;6273294;22;20149;-57
2023/12/17 10:18:33;;;;;;;7.37;6.20;;;;;;;;;;6274148;22;20425;-57
2023/12/17 10:21:04;;;;;;;9.87;7.07;;;;;;;;;;6274196;22;20187;-57
2023/12/17 10:23:45;;;;;;;10.37;8.13;;;;;;;;;;6274600;22;20152;-57
2023/12/17 10:26:11;;;;;;;12.63;8.20;;;;;;;;;;6273771;22;20148;-57
2023/12/17 10:28:37;;;;;;;11.23;8.93;;;;;;;;;;6274862;22;20517;-58
2023/12/17 10:31:03;;;;;;;9.93;8.47;;;;;;;;;;6272619;22;20148;-57
2023/12/17 10:33:31;;;;;;;10.73;8.00;;;;;;;;;;6273533;22;20180;-57
2023/12/17 10:35:58;;;;;;;10.43;8.03;;;;;;;;;;6273911;22;20180;-58
2023/12/17 10:38:24;;;;;;;9.47;8.47;;;;;;;;;;6275098;22;20156;-59
2023/12/17 10:40:50;;;;;;;14.37;10.77;;;;;;;;;;6274152;22;20184;-58
2023/12/17 10:43:17;;;;;;;13.87;10.67;;;;;;;;;;6274312;22;20514;-57
2023/12/17 10:45:43;;;;;;;16.53;11.83;;;;;;;;;;6272408;22;20278;-56
2023/12/17 10:48:10;;;;;;;17.07;12.47;;;;;;;;;;6271799;22;20148;-58
2023/12/17 10:50:37;;;;;;;14.77;12.73;;;;;;;;;;6270812;22;20182;-58
2023/12/17 10:53:03;;;;;;;14.27;12.27;;;;;;;;;;6272894;22;20148;-57
2023/12/17 10:55:29;;;;;;;14.93;13.43;;;;;;;;;;6269165;22;20224;-57
2023/12/17 10:57:55;;;;;;;16.40;14.60;;;;;;;;;;6269540;22;20152;-58
2023/12/17 11:00:24;;;;;;;16.00;14.17;;;;;;;;;;6270347;22;20751;-56
2023/12/17 11:02:52;;;;;;;15.27;13.80;;;;;;;;;;6270867;22;20136;-56
2023/12/17 11:05:18;;;;;;;16.37;14.67;;;;;;;;;;6270169;22;20152;-55
2023/12/17 11:07:44;;;;;;;16.43;14.27;;;;;;;;;;6269846;22;20159;-58
2023/12/17 11:10:11;;;;;;;17.27;14.30;;;;;;;;;;6260605;22;20740;-56
2023/12/17 11:12:37;;;;;;;16.10;14.27;;;;;;;;;;6261900;22;20572;-55
2023/12/17 11:15:03;;;;;;;18.37;14.53;;;;;;;;;;6261862;22;20210;-55
2023/12/17 11:17:31;;;;;;;15.97;13.47;;;;;;;;;;6262756;22;20448;-57
2023/12/17 11:19:58;;;;;;;13.93;11.97;;;;;;;;;;6261983;22;20518;-57
2023/12/17 11:22:25;;;;;;;12.93;11.17;;;;;;;;;;6260694;22;20289;-54
2023/12/17 11:24:55;;;;;;;13.40;11.63;;;;;;;;;;6260815;22;20751;-54
2023/12/17 11:27:22;;;;;;;12.67;10.60;;;;;;;;;;6262030;22;20463;-52
2023/12/17 11:29:49;;;;;;;12.27;10.23;;;;;;;;;;6262690;22;20455;-57
2023/12/17 11:32:17;;;;;;;11.03;9.13;;;;;;;;;;6261847;22;20140;-57
2023/12/17 11:34:51;;;;;;;11.67;9.10;;;;;;;;;;6263837;22;20244;-55
2023/12/17 11:37:21;;;;;;;12.90;9.37;;;;;;;;;;6265913;22;20171;-54
2023/12/17 11:39:52;;;;;;;10.07;9.07;;;;;;;;;;6267089;22;20136;-56
2023/12/17 11:42:19;;;;;;;13.00;9.30;;;;;;;;;;6269581;22;20354;-56
2023/12/17 11:44:47;;;;;;;10.33;9.23;;;;;;;;;;6269257;22;20242;-57
2023/12/17 11:47:13;;;;;;;10.97;9.33;;;;;;;;;;6268648;22;20144;-52
2023/12/17 11:49:39;;;;;;;9.33;7.73;;;;;;;;;;6301555;22;20128;-56
2023/12/17 11:52:16;;;;;;;9.13;7.20;;;;;;;;;;6275249;22;20162;-57
2023/12/17 11:54:42;;;;;;;8.07;6.80;;;;;;;;;;6275174;22;20179;-56
2023/12/17 11:57:19;;;;;;;11.57;7.30;;;;;;;;;;6301433;22;20134;-58
2023/12/17 11:59:46;;;;;;;8.77;7.20;;;;;;;;;;6274792;22;20200;-57
2023/12/17 12:02:14;;;;;;;8.57;6.50;;;;;;;;;;6273570;22;20143;-57
2023/12/17 12:04:44;;;;;;;7.73;6.40;;;;;;;;;;6275503;22;20144;-55
2023/12/17 12:07:15;;;;;;;11.03;6.00;;;;;;;;;;6275616;22;20438;-54
2023/12/17 12:09:41;;;;;;;12.03;5.40;;;;;;;;;;6275661;22;20140;-56
2023/12/17 12:12:20;;;;;;;9.27;5.93;;;;;;;;;;6273528;22;20151;-56
2023/12/17 12:14:49;;;;;;;6.13;5.37;;;;;;;;;;6272794;22;20209;-58
2023/12/17 12:17:33;;;;;;;7.73;5.63;;;;;;;;;;6273155;22;20131;-55
2023/12/17 12:19:59;;;;;;;6.60;5.50;;;;;;;;;;6273776;22;20197;-57
2023/12/17 12:22:29;;;;;;;9.57;5.60;;;;;;;;;;6301556;22;20135;-54
2023/12/17 12:24:58;;;;;;;7.87;5.40;;;;;;;;;;6277117;22;20152;-53
2023/12/17 12:27:24;;;;;;;7.17;5.83;;;;;;;;;;6278320;22;20226;-57
2023/12/17 12:29:52;;;;;;;10.20;6.53;;;;;;;;;;6280012;22;20139;-52
2023/12/17 12:32:30;;;;;;;8.83;6.07;;;;;;;;;;6279295;22;20136;-56
2023/12/17 12:35:04;;;;;;;6.23;5.03;;;;;;;;;;6277825;22;20181;-57
2023/12/17 12:37:34;;;;;;;8.03;5.60;;;;;;;;;;6276597;22;20427;-58
2023/12/17 12:40:00;;;;;;;8.60;6.50;;;;;;;;;;6277702;22;20195;-57
2023/12/17 12:42:27;;;;;;;11.63;6.77;;;;;;;;;;6305133;22;20130;-57
2023/12/17 12:44:54;;;;;;;9.27;6.47;;;;;;;;;;6272407;22;20585;-56
2023/12/17 12:47:22;;;;;;;11.67;7.20;;;;;;;;;;6272968;22;20147;-53
2023/12/17 12:49:50;;;;;;;12.13;6.90;;;;;;;;;;6300002;22;20545;-58
2023/12/17 12:52:26;;;;;;;11.50;6.80;;;;;;;;;;6299655;22;20143;-56
2023/12/17 12:54:52;;;;;;;11.23;6.77;;;;;;;;;;6273868;22;20186;-55
2023/12/17 12:57:19;;;;;;;12.40;8.37;;;;;;;;;;6273632;22;20139;-56
2023/12/17 12:59:46;;;;;;;9.90;6.47;;;;;;;;;;6274008;22;20204;-57
2023/12/17 13:02:12;;;;;;;10.93;7.67;;;;;;;;;;6273721;22;20147;-58
2023/12/17 13:04:39;;;;;;;11.73;7.80;;;;;;;;;;6300503;22;20138;-57
2023/12/17 13:07:05;;;;;;;11.50;8.73;;;;;;;;;;6274786;22;20159;-58
2023/12/17 13:09:33;;;;;;;11.87;7.77;;;;;;;;;;6275431;22;20204;-53
2023/12/17 13:11:59;;;;;;;12.40;8.87;;;;;;;;;;6275774;22;20567;-58
2023/12/17 13:14:25;;;;;;;18.97;9.30;;;;;;;;;;6275463;22;20456;-57
2023/12/17 13:16:51;;;;;;;13.07;8.97;;;;;;;;;;6299363;22;20128;-54
2023/12/17 13:19:18;;;;;;;11.33;8.27;;;;;;;;;;6271531;22;20234;-56
2023/12/17 13:21:44;;;;;;;11.80;8.73;;;;;;;;;;6269234;22;20248;-53
2023/12/17 13:24:10;;;;;;;12.03;8.83;;;;;;;;;;6270572;22;20151;-54
2023/12/17 13:26:39;;;;;;;12.67;8.53;;;;;;;;;;6269348;22;20151;-57
2023/12/17 13:29:05;;;;;;;13.60;8.90;;;;;;;;;;6270023;22;20574;-56
2023/12/17 13:31:33;;;;;;;12.87;8.63;;;;;;;;;;6268337;22;20148;-53
2023/12/17 13:34:00;;;;;;;13.10;8.90;;;;;;;;;;6269337;22;20375;-58
2023/12/17 13:36:26;;;;;;;11.53;8.43;;;;;;;;;;6269563;22;20159;-54
2023/12/17 13:38:52;;;;;;;11.33;8.73;;;;;;;;;;6272011;22;20200;-56
2023/12/17 13:41:18;;;;;;;11.47;9.27;;;;;;;;;;6269012;22;20229;-53
2023/12/17 13:43:44;;;;;;;11.87;9.70;;;;;;;;;;6269119;22;20311;-56
2023/12/17 13:46:10;;;;;;;13.30;9.93;;;;;;;;;;6270219;22;20234;-55
2023/12/17 13:48:36;;;;;;;11.90;9.20;;;;;;;;;;6269684;22;20144;-57
2023/12/17 13:51:02;;;;;;;16.60;10.30;;;;;;;;;;6297572;22;20248;-55
2023/12/17 13:53:28;;;;;;;10.90;8.30;;;;;;;;;;6271457;22;20402;-54
2023/12/17 13:55:54;;;;;;;13.43;9.17;;;;;;;;;;6271956;22;20630;-55
2023/12/17 13:58:21;;;;;;;11.20;9.40;;;;;;;;;;6272958;22;20136;-54
2023/12/17 14:00:48;;;;;;;13.57;9.17;;;;;;;;;;6271329;22;20365;-58
2023/12/17 14:03:14;;;;;;;11.67;9.03;;;;;;;;;;6275459;22;20779;-58
2023/12/17 14:05:40;;;;;;;11.00;9.13;;;;;;;;;;6278912;22;20151;-59
2023/12/17 14:08:06;;;;;;;12.90;10.17;;;;;;;;;;6279393;22;20151;-55
2023/12/17 14:10:33;;;;;;;11.73;8.83;;;;;;;;;;6278572;22;20136;-55
2023/12/17 14:13:00;;;;;;;11.30;9.03;;;;;;;;;;6277728;22;20135;-58
2023/12/17 14:15:27;;;;;;;11.70;9.00;;;;;;;;;;6278022;22;20163;-55
2023/12/17 14:17:53;;;;;;;12.17;8.90;;;;;;;;;;6303896;22;20425;-56
2023/12/17 14:20:19;;;;;;;13.13;9.43;;;;;;;;;;6278577;22;20651;-55
2023/12/17 14:22:45;;;;;;;11.83;8.53;;;;;;;;;;6278545;22;20140;-58
2023/12/17 14:25:12;;;;;;;11.23;8.70;;;;;;;;;;6277072;22;20147;-58
2023/12/17 14:27:38;;;;;;;11.07;8.93;;;;;;;;;;6278831;22;20618;-57
2023/12/17 14:30:08;;;;;;;11.10;8.40;;;;;;;;;;6274776;22;20140;-58
2023/12/17 14:32:37;;;;;;;14.30;9.07;;;;;;;;;;6270711;22;20230;-57
2023/12/17 14:35:04;;;;;;;13.60;10.27;;;;;;;;;;6270404;22;20276;-55
2023/12/17 14:37:31;;;;;;;13.03;9.60;;;;;;;;;;6268749;22;20154;-55